Time;durP1;ratioP1;P1;durP2;ratioP2;P2;SDS_P1;SDS_P2;PMS_P1;PMS_P2;Temp;Humidity;BMP_temperature;BMP_pressure;BME280_temperature;BME280_humidity;BME280_pressure;Samples;Min_cycle;Max_cycle;Signal;HPM_P1;HPM_P2
2022/12/12 00:01:25;;;;;;;36.90;14.97;;;-1.30;99.90;;;;;;4961911;28;20199;-58
2022/12/12 00:03:54;;;;;;;39.67;15.20;;;-1.30;99.90;;;;;;4971479;28;20683;-57
2022/12/12 00:06:24;;;;;;;34.90;16.27;;;-1.30;99.90;;;;;;5002651;28;20222;-58
2022/12/12 00:08:53;;;;;;;33.43;14.93;;;-1.30;99.90;;;;;;4999443;28;20620;-58
2022/12/12 00:11:24;;;;;;;31.80;13.73;;;-1.20;99.90;;;;;;4970757;28;20207;-58
2022/12/12 00:13:53;;;;;;;33.37;15.20;;;-1.20;99.90;;;;;;4979235;28;20196;-58
2022/12/12 00:16:22;;;;;;;27.73;13.43;;;-1.20;99.90;;;;;;4969858;28;20239;-59
2022/12/12 00:18:51;;;;;;;33.20;14.50;;;-1.20;99.90;;;;;;4969571;28;20214;-58
2022/12/12 00:21:22;;;;;;;34.57;15.43;;;-1.30;99.90;;;;;;4964203;28;20873;-58
2022/12/12 00:23:53;;;;;;;32.13;15.10;;;-1.30;99.90;;;;;;4997341;28;20203;-58
2022/12/12 00:26:24;;;;;;;37.37;14.13;;;-1.30;99.90;;;;;;4960129;28;20204;-57
2022/12/12 00:28:53;;;;;;;32.33;13.57;;;-1.30;99.90;;;;;;4975009;28;20206;-58
2022/12/12 00:31:21;;;;;;;34.00;14.20;;;-1.30;99.90;;;;;;5002083;28;20211;-58
2022/12/12 00:33:50;;;;;;;38.27;14.80;;;-1.30;99.90;;;;;;4966045;28;20192;-58
2022/12/12 00:36:20;;;;;;;30.80;14.13;;;-1.30;99.90;;;;;;4970293;28;20203;-58
2022/12/12 00:38:49;;;;;;;32.43;13.97;;;-1.30;99.90;;;;;;4970744;28;20206;-59
2022/12/12 00:41:19;;;;;;;31.97;14.40;;;-1.40;99.90;;;;;;4971913;28;20192;-58
2022/12/12 00:43:49;;;;;;;32.80;13.87;;;-1.40;99.90;;;;;;5002766;28;20207;-58
2022/12/12 00:46:19;;;;;;;33.37;14.40;;;-1.40;99.90;;;;;;4971074;28;20196;-58
2022/12/12 00:48:48;;;;;;;33.83;13.63;;;-1.40;99.90;;;;;;4969946;28;20199;-58
2022/12/12 00:51:18;;;;;;;28.73;13.13;;;-1.40;99.90;;;;;;4970900;28;20200;-58
2022/12/12 00:53:47;;;;;;;34.57;14.40;;;-1.50;99.90;;;;;;4971135;28;20660;-57
2022/12/12 00:56:16;;;;;;;31.77;14.63;;;-1.50;99.90;;;;;;4971426;28;20192;-57
2022/12/12 00:58:46;;;;;;;30.97;14.20;;;-1.60;99.90;;;;;;4980645;28;20195;-57
2022/12/12 01:01:16;;;;;;;33.00;14.70;;;-1.60;99.90;;;;;;4971166;28;20199;-57
2022/12/12 01:03:46;;;;;;;36.83;14.73;;;-1.60;99.90;;;;;;4967181;28;20577;-57
2022/12/12 01:06:15;;;;;;;30.93;14.43;;;-1.70;99.90;;;;;;4971034;28;20202;-57
2022/12/12 01:08:43;;;;;;;28.50;12.83;;;-1.70;99.90;;;;;;4966856;28;20223;-58
2022/12/12 01:11:13;;;;;;;28.87;12.97;;;-1.70;99.90;;;;;;4963365;28;20207;-58
2022/12/12 01:13:43;;;;;;;34.17;13.80;;;-1.70;99.90;;;;;;4966623;28;20196;-57
2022/12/12 01:16:13;;;;;;;31.27;14.20;;;-1.80;99.90;;;;;;4968287;28;20231;-58
2022/12/12 01:18:42;;;;;;;33.13;14.27;;;-1.80;99.90;;;;;;4968805;28;20553;-57
2022/12/12 01:21:13;;;;;;;36.80;15.03;;;-1.80;99.90;;;;;;4970982;28;20192;-57
2022/12/12 01:23:42;;;;;;;40.43;15.37;;;-1.80;99.90;;;;;;4966005;28;20203;-58
2022/12/12 01:26:14;;;;;;;31.33;14.67;;;-1.80;99.90;;;;;;4966167;28;20283;-57
2022/12/12 01:28:43;;;;;;;38.53;15.40;;;-1.90;99.90;;;;;;4967870;28;20227;-57
2022/12/12 01:31:14;;;;;;;34.70;14.73;;;-1.90;99.90;;;;;;4971001;28;20258;-57
2022/12/12 01:33:44;;;;;;;34.33;15.10;;;-2.00;99.90;;;;;;4973591;28;20278;-57
2022/12/12 01:36:16;;;;;;;34.20;14.57;;;-2.10;99.90;;;;;;5002470;28;20597;-58
2022/12/12 01:38:45;;;;;;;33.63;14.83;;;-2.00;99.90;;;;;;4969589;28;20711;-57
2022/12/12 01:41:15;;;;;;;30.97;13.67;;;-2.00;99.90;;;;;;4965422;28;20806;-57
2022/12/12 01:43:43;;;;;;;31.20;14.33;;;-2.10;99.90;;;;;;4968352;28;20204;-58
2022/12/12 01:46:33;;;;;;;31.63;14.53;;;-2.00;99.90;;;;;;4967195;28;20202;-57
2022/12/12 01:49:09;;;;;;;31.33;14.40;;;-2.10;99.90;;;;;;4971241;28;20204;-57
2022/12/12 01:51:39;;;;;;;32.07;14.83;;;-2.10;99.90;;;;;;4965928;28;20712;-58
2022/12/12 01:54:10;;;;;;;36.07;15.73;;;-2.00;99.90;;;;;;4972967;28;20200;-57
2022/12/12 01:56:41;;;;;;;39.93;15.53;;;-2.10;99.90;;;;;;4969353;28;20199;-58
2022/12/12 01:59:14;;;;;;;30.40;14.20;;;-2.10;99.90;;;;;;4963601;28;20203;-57
2022/12/12 02:01:45;;;;;;;32.47;14.00;;;-2.00;99.90;;;;;;4961917;28;20203;-57
2022/12/12 02:04:15;;;;;;;31.60;14.23;;;-2.00;99.90;;;;;;4966175;28;20200;-57
2022/12/12 02:06:43;;;;;;;31.17;14.87;;;-2.00;99.90;;;;;;4961594;28;20547;-58
2022/12/12 02:09:13;;;;;;;31.93;14.47;;;-1.90;99.90;;;;;;4969639;28;20226;-58
2022/12/12 02:11:44;;;;;;;28.77;13.67;;;-1.90;99.90;;;;;;4971478;28;20215;-58
2022/12/12 02:14:14;;;;;;;28.83;13.57;;;-1.90;99.90;;;;;;4975370;28;20204;-58
2022/12/12 02:16:58;;;;;;;27.87;13.43;;;-1.90;99.90;;;;;;4958651;28;20751;-58
2022/12/12 02:19:53;;;;;;;27.73;13.37;;;-1.80;99.90;;;;;;4965068;28;20195;-57
2022/12/12 02:22:33;;;;;;;30.50;14.47;;;-1.80;99.90;;;;;;4992295;28;20196;-58
2022/12/12 02:25:26;;;;;;;30.47;13.73;;;-1.80;99.90;;;;;;4969238;28;20199;-58
2022/12/12 02:28:13;;;;;;;28.53;13.47;;;-1.80;99.90;;;;;;4963619;28;20191;-58
2022/12/12 02:30:48;;;;;;;29.50;14.40;;;-1.90;99.90;;;;;;4969027;28;20196;-57
2022/12/12 02:33:29;;;;;;;33.77;14.60;;;-1.90;99.90;;;;;;4966694;28;20227;-58
2022/12/12 02:36:09;;;;;;;30.67;14.20;;;-1.90;99.90;;;;;;4969402;28;20523;-57
2022/12/12 02:38:45;;;;;;;32.40;13.97;;;-1.80;99.90;;;;;;4968661;28;20204;-58
2022/12/12 02:41:19;;;;;;;27.93;13.07;;;-1.80;99.90;;;;;;4966416;28;20207;-57
2022/12/12 02:43:58;;;;;;;30.83;14.00;;;-1.80;99.90;;;;;;4965865;28;20196;-58
2022/12/12 02:46:32;;;;;;;32.77;14.03;;;-1.80;99.90;;;;;;4964614;28;20199;-58
2022/12/12 02:49:06;;;;;;;31.47;13.90;;;-1.80;99.90;;;;;;4966224;28;20198;-58
2022/12/12 02:51:36;;;;;;;27.20;12.73;;;-1.80;99.90;;;;;;4966190;28;20211;-58
2022/12/12 02:54:06;;;;;;;24.63;12.03;;;-1.80;99.90;;;;;;4970793;28;20200;-57
2022/12/12 02:56:47;;;;;;;29.10;12.47;;;-1.80;99.90;;;;;;4968140;28;20203;-58
2022/12/12 02:59:20;;;;;;;26.43;12.90;;;-1.80;99.90;;;;;;4966917;28;20199;-57
2022/12/12 03:02:20;;;;;;;24.87;12.70;;;-1.80;99.90;;;;;;4970000;28;20650;-58
2022/12/12 03:07:59;;;;;;;25.83;13.07;;;-1.90;99.90;;;;;;4970732;28;20203;-58
2022/12/12 03:10:39;;;;;;;25.83;13.20;;;-1.90;99.90;;;;;;4971877;28;20791;-58
2022/12/12 03:13:13;;;;;;;27.67;13.47;;;-1.90;99.90;;;;;;4980575;28;20207;-57
2022/12/12 03:15:52;;;;;;;27.33;13.03;;;-1.90;99.90;;;;;;4970353;28;20199;-57
2022/12/12 03:18:26;;;;;;;29.90;12.90;;;-2.00;99.90;;;;;;4976518;28;20286;-58
2022/12/12 03:21:02;;;;;;;27.83;12.97;;;-2.00;99.90;;;;;;4971564;28;20211;-58
2022/12/12 03:23:37;;;;;;;28.63;13.20;;;-2.10;99.90;;;;;;4974376;28;20201;-57
2022/12/12 03:26:13;;;;;;;26.70;12.73;;;-2.10;99.90;;;;;;4962370;28;20570;-57
2022/12/12 03:28:47;;;;;;;24.10;11.90;;;-2.10;99.90;;;;;;5000722;28;20207;-58
2022/12/12 03:31:19;;;;;;;33.13;13.63;;;-2.10;99.90;;;;;;4964588;28;20646;-57
2022/12/12 03:33:52;;;;;;;26.73;13.23;;;-2.10;99.90;;;;;;4974652;28;20216;-58
2022/12/12 03:36:29;;;;;;;31.70;12.87;;;-2.10;99.90;;;;;;4972669;28;20199;-58
2022/12/12 03:39:01;;;;;;;30.73;13.67;;;-2.10;99.90;;;;;;4979592;28;20588;-57
2022/12/12 03:41:35;;;;;;;30.00;13.20;;;-2.20;99.90;;;;;;4967055;28;20212;-57
2022/12/12 03:44:08;;;;;;;25.73;12.90;;;-2.30;99.90;;;;;;4958277;28;20210;-58
2022/12/12 03:46:40;;;;;;;29.20;13.10;;;-2.30;99.90;;;;;;4969586;28;20207;-58
2022/12/12 03:49:15;;;;;;;26.10;12.87;;;-2.30;99.90;;;;;;4964522;28;20215;-58
2022/12/12 03:51:50;;;;;;;26.67;12.87;;;-2.40;99.90;;;;;;4964201;28;20562;-58
2022/12/12 03:54:23;;;;;;;31.13;12.47;;;-2.30;99.90;;;;;;4967863;28;20693;-57
2022/12/12 03:56:56;;;;;;;27.63;12.90;;;-2.30;99.90;;;;;;4970208;28;20207;-58
2022/12/12 03:59:30;;;;;;;29.23;12.90;;;-2.30;99.90;;;;;;4971442;28;20201;-58
2022/12/12 04:02:02;;;;;;;25.37;12.23;;;-2.40;99.90;;;;;;4967603;28;20191;-58
2022/12/12 04:04:40;;;;;;;31.93;13.10;;;-2.40;99.90;;;;;;4968696;28;20192;-58
2022/12/12 04:07:15;;;;;;;30.30;13.23;;;-2.40;99.90;;;;;;4995298;28;20210;-58
2022/12/12 04:15:59;;;;;;;29.27;12.60;;;-2.50;99.90;;;;;;4964553;28;20200;-57
2022/12/12 04:18:36;;;;;;;28.93;12.23;;;-2.50;99.90;;;;;;4968561;28;20669;-57
2022/12/12 04:24:22;;;;;;;28.60;12.63;;;-2.60;99.90;;;;;;4966943;28;20259;-58
2022/12/12 04:26:55;;;;;;;26.73;13.10;;;-2.60;99.90;;;;;;4964141;28;20218;-58
2022/12/12 04:29:33;;;;;;;31.33;13.77;;;-2.50;99.90;;;;;;4974568;28;20800;-58
2022/12/12 04:32:07;;;;;;;27.20;12.80;;;-2.40;99.90;;;;;;4961502;28;20187;-58
2022/12/12 04:34:42;;;;;;;30.17;13.27;;;-2.40;99.90;;;;;;4976695;28;20201;-58
2022/12/12 04:37:14;;;;;;;27.83;12.40;;;-2.40;99.90;;;;;;4970348;28;20573;-58
2022/12/12 04:39:49;;;;;;;32.70;13.83;;;-2.40;99.90;;;;;;4971245;28;20670;-57
2022/12/12 04:42:21;;;;;;;31.03;13.83;;;-2.40;99.90;;;;;;4971529;28;20196;-57
2022/12/12 04:44:54;;;;;;;32.30;14.10;;;-2.30;99.90;;;;;;4962289;28;20203;-58
2022/12/12 04:47:23;;;;;;;30.50;12.83;;;-2.30;99.90;;;;;;4962482;28;20596;-58
2022/12/12 04:49:54;;;;;;;28.80;12.73;;;-2.30;99.90;;;;;;4964588;28;20612;-58
2022/12/12 04:52:23;;;;;;;30.00;12.63;;;-2.20;99.90;;;;;;4966842;28;20651;-58
2022/12/12 04:54:59;;;;;;;27.63;11.97;;;-2.10;99.90;;;;;;4970678;28;20192;-57
2022/12/12 04:57:32;;;;;;;28.10;12.70;;;-2.00;99.90;;;;;;4964716;28;20677;-57
2022/12/12 05:00:00;;;;;;;31.93;12.67;;;-2.10;99.90;;;;;;4968854;28;20282;-57
2022/12/12 05:02:36;;;;;;;30.03;12.97;;;-2.00;99.90;;;;;;4993182;28;20204;-58
2022/12/12 05:05:10;;;;;;;26.53;12.87;;;-2.00;99.90;;;;;;4991799;28;20195;-57
2022/12/12 05:07:42;;;;;;;34.50;13.80;;;-2.00;99.90;;;;;;4965684;28;20676;-58
2022/12/12 05:10:15;;;;;;;31.17;12.73;;;-2.00;99.90;;;;;;4974215;28;20191;-57
2022/12/12 05:12:46;;;;;;;26.80;12.83;;;-2.10;99.90;;;;;;4969965;28;20261;-57
2022/12/12 05:15:17;;;;;;;27.73;12.97;;;-2.00;99.90;;;;;;4974353;28;20196;-57
2022/12/12 05:17:47;;;;;;;28.47;12.27;;;-2.00;99.90;;;;;;4975887;28;20239;-57
2022/12/12 05:20:16;;;;;;;29.20;13.07;;;-2.00;99.90;;;;;;4999974;28;20204;-58
2022/12/12 05:22:44;;;;;;;32.27;13.40;;;-2.00;99.90;;;;;;4969003;28;20204;-58
2022/12/12 05:25:14;;;;;;;28.87;12.13;;;-2.00;99.90;;;;;;4967173;28;20192;-58
2022/12/12 05:27:43;;;;;;;28.30;12.90;;;-2.10;99.90;;;;;;4969728;28;20200;-58
2022/12/12 05:30:12;;;;;;;27.80;12.53;;;-2.10;99.90;;;;;;4969332;28;20646;-58
2022/12/12 05:32:40;;;;;;;28.20;12.83;;;-2.20;99.90;;;;;;4969431;28;20218;-57
2022/12/12 05:35:09;;;;;;;27.03;12.37;;;-2.20;99.90;;;;;;4965637;28;20210;-58
2022/12/12 05:37:39;;;;;;;31.43;12.90;;;-2.20;99.90;;;;;;4974826;28;20200;-57
2022/12/12 05:40:09;;;;;;;27.80;12.13;;;-2.20;99.90;;;;;;4967226;28;20266;-58
2022/12/12 05:42:39;;;;;;;31.57;12.67;;;-2.10;99.90;;;;;;4967313;28;20642;-58
2022/12/12 05:45:09;;;;;;;27.87;11.97;;;-2.10;99.90;;;;;;4964313;28;20213;-58
2022/12/12 05:47:38;;;;;;;27.87;12.43;;;-2.20;99.90;;;;;;4970102;28;20245;-57
2022/12/12 05:50:07;;;;;;;27.63;12.43;;;-2.20;99.90;;;;;;4963187;28;20196;-56
2022/12/12 05:52:36;;;;;;;26.60;12.63;;;-2.20;99.90;;;;;;4970040;28;20211;-58
2022/12/12 05:55:05;;;;;;;28.80;12.53;;;-2.20;99.90;;;;;;4995230;28;20215;-58
2022/12/12 05:57:34;;;;;;;31.03;12.90;;;-2.20;99.90;;;;;;4967801;28;20292;-57
2022/12/12 06:00:04;;;;;;;25.97;11.93;;;-2.20;99.90;;;;;;5016152;28;20192;-58
2022/12/12 06:02:33;;;;;;;28.87;12.20;;;-2.20;99.90;;;;;;4964605;28;20195;-57
2022/12/12 06:05:01;;;;;;;31.10;12.70;;;-2.20;99.90;;;;;;4964693;28;20191;-57
2022/12/12 06:07:30;;;;;;;28.83;12.00;;;-2.30;99.90;;;;;;4965213;28;21932;-57
2022/12/12 06:09:58;;;;;;;22.90;11.03;;;-2.30;99.90;;;;;;4963476;28;20231;-57
2022/12/12 06:12:27;;;;;;;33.13;11.57;;;-2.30;99.90;;;;;;4968607;28;20195;-57
2022/12/12 06:14:55;;;;;;;25.10;11.83;;;-2.30;99.90;;;;;;4965229;28;20211;-57
2022/12/12 06:17:25;;;;;;;26.77;11.20;;;-2.40;99.90;;;;;;4967307;28;20233;-57
2022/12/12 06:20:00;;;;;;;27.00;10.97;;;-2.40;99.90;;;;;;4967784;28;20666;-57
2022/12/12 06:22:28;;;;;;;24.33;11.13;;;-2.40;99.90;;;;;;4969176;28;20206;-58
2022/12/12 06:24:57;;;;;;;31.10;12.70;;;-2.50;99.90;;;;;;4976423;28;20279;-58
2022/12/12 06:27:25;;;;;;;28.33;11.57;;;-2.60;99.90;;;;;;4970495;28;20204;-57
2022/12/12 06:29:53;;;;;;;28.93;12.37;;;-2.70;99.90;;;;;;4966783;28;20210;-58
2022/12/12 06:32:21;;;;;;;23.80;11.50;;;-2.80;99.90;;;;;;4965932;28;20781;-57
2022/12/12 06:34:51;;;;;;;24.80;11.50;;;-2.80;99.90;;;;;;4973755;28;20210;-57
2022/12/12 06:37:20;;;;;;;27.63;11.83;;;-2.90;99.90;;;;;;4970614;28;20192;-57
2022/12/12 06:39:48;;;;;;;25.33;11.43;;;-3.00;99.90;;;;;;4962384;28;20199;-56
2022/12/12 06:42:16;;;;;;;31.80;12.40;;;-3.00;99.90;;;;;;4978454;28;20220;-57
2022/12/12 06:44:45;;;;;;;28.10;11.30;;;-3.00;99.90;;;;;;5004259;28;20200;-57
2022/12/12 06:47:13;;;;;;;31.20;12.10;;;-3.00;99.90;;;;;;4962587;28;20192;-57
2022/12/12 06:49:42;;;;;;;26.80;11.47;;;-3.00;99.90;;;;;;4962983;28;20252;-58
2022/12/12 06:52:11;;;;;;;30.10;11.53;;;-3.00;99.90;;;;;;4965236;28;20216;-58
2022/12/12 06:54:40;;;;;;;28.57;11.80;;;-3.00;99.90;;;;;;4967871;28;20215;-57
2022/12/12 06:57:08;;;;;;;33.63;11.83;;;-2.90;99.90;;;;;;4970315;28;20201;-58
2022/12/12 06:59:37;;;;;;;36.47;12.37;;;-3.00;99.90;;;;;;4968049;28;20196;-57
2022/12/12 07:02:05;;;;;;;27.80;11.93;;;-3.00;99.90;;;;;;4961706;28;20204;-56
2022/12/12 07:04:34;;;;;;;25.23;10.53;;;-3.10;99.90;;;;;;4978390;28;20663;-58
2022/12/12 07:07:02;;;;;;;28.67;11.07;;;-3.00;99.90;;;;;;4967566;28;20196;-58
2022/12/12 07:09:32;;;;;;;30.30;11.70;;;-3.00;99.90;;;;;;4968579;28;20191;-58
2022/12/12 07:12:00;;;;;;;30.93;11.37;;;-3.00;99.90;;;;;;4971339;28;20204;-58
2022/12/12 07:14:28;;;;;;;28.97;12.13;;;-3.00;99.90;;;;;;4977610;28;20224;-58
2022/12/12 07:16:57;;;;;;;29.90;12.07;;;-3.10;99.90;;;;;;4989917;28;20722;-58
2022/12/12 07:19:25;;;;;;;28.50;12.07;;;-3.20;99.90;;;;;;4978597;28;20203;-58
2022/12/12 07:21:53;;;;;;;33.77;13.43;;;-3.20;99.90;;;;;;4969466;28;20211;-58
2022/12/12 07:24:21;;;;;;;31.67;12.40;;;-3.30;99.90;;;;;;4977813;28;20195;-58
2022/12/12 07:26:51;;;;;;;32.40;12.53;;;-3.30;99.90;;;;;;4972954;28;20207;-58
2022/12/12 07:29:19;;;;;;;31.57;12.77;;;-3.40;99.90;;;;;;4962586;28;20876;-58
2022/12/12 07:31:48;;;;;;;33.33;13.10;;;-3.40;99.90;;;;;;4968575;28;20214;-58
2022/12/12 07:34:16;;;;;;;32.40;12.97;;;-3.40;99.90;;;;;;4971370;28;20211;-58
2022/12/12 07:36:44;;;;;;;32.50;13.00;;;-3.40;99.90;;;;;;4980385;28;20198;-58
2022/12/12 07:39:13;;;;;;;29.57;12.20;;;-3.50;99.90;;;;;;4961622;28;20207;-58
2022/12/12 07:41:48;;;;;;;30.57;12.27;;;-3.50;99.90;;;;;;4985514;28;20215;-58
2022/12/12 07:44:20;;;;;;;30.63;12.53;;;-3.60;99.90;;;;;;4972329;28;20195;-58
2022/12/12 07:46:49;;;;;;;31.00;12.40;;;-3.60;99.90;;;;;;4973161;28;20531;-58
2022/12/12 07:49:17;;;;;;;32.30;13.10;;;-3.60;99.90;;;;;;4971225;28;20253;-59
2022/12/12 07:51:45;;;;;;;36.70;13.60;;;-3.60;99.90;;;;;;4975510;28;20200;-58
2022/12/12 07:54:17;;;;;;;49.70;18.43;;;-3.60;99.90;;;;;;4977503;28;20294;-58
2022/12/12 07:56:45;;;;;;;65.83;22.67;;;-3.60;99.90;;;;;;4965648;28;20196;-58
2022/12/12 07:59:14;;;;;;;85.53;27.37;;;-3.60;99.90;;;;;;4969639;28;20200;-58
2022/12/12 08:01:43;;;;;;;62.40;25.77;;;-3.60;99.90;;;;;;4968646;28;20585;-57
2022/12/12 08:04:12;;;;;;;56.60;22.07;;;-3.60;99.90;;;;;;4966587;28;20245;-58
2022/12/12 08:06:40;;;;;;;44.63;16.57;;;-3.60;99.90;;;;;;4970137;28;20192;-58
2022/12/12 08:09:09;;;;;;;38.93;14.73;;;-3.60;99.90;;;;;;4966729;28;20204;-58
2022/12/12 08:11:39;;;;;;;34.13;14.47;;;-3.60;99.90;;;;;;4965242;28;20227;-58
2022/12/12 08:14:13;;;;;;;39.03;15.10;;;-3.60;99.90;;;;;;4967051;28;20207;-58
2022/12/12 08:16:43;;;;;;;40.87;15.13;;;-3.60;99.90;;;;;;4969745;28;20235;-58
2022/12/12 08:19:12;;;;;;;37.87;14.90;;;-3.50;99.90;;;;;;4967834;28;20199;-58
2022/12/12 08:21:40;;;;;;;36.20;14.93;;;-3.50;99.90;;;;;;4971653;28;20206;-59
2022/12/12 08:24:12;;;;;;;39.57;15.70;;;-3.50;99.90;;;;;;4972622;28;20203;-58
2022/12/12 08:26:40;;;;;;;39.20;16.03;;;-3.40;99.90;;;;;;4969645;28;20206;-58
2022/12/12 08:29:09;;;;;;;41.23;16.57;;;-3.40;99.90;;;;;;4964298;28;20204;-58
2022/12/12 08:31:38;;;;;;;34.60;14.67;;;-3.40;99.90;;;;;;4974457;28;20199;-58
2022/12/12 08:34:09;;;;;;;37.23;15.23;;;-3.40;99.90;;;;;;4966493;28;20184;-58
2022/12/12 08:36:38;;;;;;;38.00;15.90;;;-3.30;99.90;;;;;;4973557;28;20220;-57
2022/12/12 08:39:10;;;;;;;66.50;25.10;;;-3.30;99.90;;;;;;4966747;28;20196;-58
2022/12/12 08:41:41;;;;;;;107.40;40.40;;;-3.30;99.90;;;;;;4970994;28;20223;-56
2022/12/12 08:44:11;;;;;;;45.80;18.57;;;-3.30;99.90;;;;;;4971863;28;20199;-57
2022/12/12 08:46:40;;;;;;;41.27;16.23;;;-3.30;99.90;;;;;;4970234;28;20202;-58
2022/12/12 08:49:11;;;;;;;43.03;16.47;;;-3.20;99.90;;;;;;4966958;28;20192;-58
2022/12/12 08:51:40;;;;;;;43.33;14.87;;;-3.20;99.90;;;;;;4963393;28;20210;-58
2022/12/12 08:54:10;;;;;;;43.87;15.90;;;-3.20;99.90;;;;;;4968136;28;20184;-58
2022/12/12 08:56:39;;;;;;;37.83;13.67;;;-3.10;99.90;;;;;;4966563;28;20215;-58
2022/12/12 08:59:07;;;;;;;42.40;15.90;;;-3.00;99.90;;;;;;4963969;28;20188;-57
2022/12/12 09:01:35;;;;;;;41.10;15.77;;;-3.00;99.90;;;;;;4966322;28;20622;-57
2022/12/12 09:04:04;;;;;;;35.40;14.50;;;-2.90;99.90;;;;;;4968158;28;20199;-58
2022/12/12 09:06:33;;;;;;;39.37;16.13;;;-2.90;99.90;;;;;;4969039;28;20219;-58
2022/12/12 09:09:02;;;;;;;47.30;17.67;;;-2.80;99.90;;;;;;4968750;28;20196;-58
2022/12/12 09:11:31;;;;;;;36.97;14.30;;;-2.70;99.90;;;;;;4969854;28;20211;-58
2022/12/12 09:13:59;;;;;;;36.07;14.27;;;-2.60;99.90;;;;;;4967778;28;20195;-58
2022/12/12 09:16:28;;;;;;;43.40;15.03;;;-2.50;99.90;;;;;;4969138;28;20235;-59
2022/12/12 09:18:57;;;;;;;36.03;13.93;;;-2.40;99.90;;;;;;4965227;28;20208;-58
2022/12/12 09:21:25;;;;;;;37.57;14.60;;;-2.30;99.90;;;;;;4971335;28;20200;-58
2022/12/12 09:23:55;;;;;;;33.53;14.07;;;-2.10;99.90;;;;;;4959320;28;20207;-59
2022/12/12 09:26:23;;;;;;;35.20;14.60;;;-2.10;99.90;;;;;;4965632;28;20196;-58
2022/12/12 09:28:52;;;;;;;36.40;13.70;;;-1.90;99.90;;;;;;4967817;28;20207;-58
2022/12/12 09:31:21;;;;;;;30.63;14.00;;;-1.70;99.90;;;;;;4963084;28;20204;-58
2022/12/12 09:33:50;;;;;;;34.73;13.97;;;-1.60;99.90;;;;;;4971875;28;20218;-58
2022/12/12 09:36:18;;;;;;;36.47;14.57;;;-1.40;99.90;;;;;;4967404;28;20204;-58
2022/12/12 09:38:47;;;;;;;35.57;14.23;;;-1.30;99.90;;;;;;4965766;28;20509;-58
2022/12/12 09:41:19;;;;;;;29.50;13.63;;;-1.20;99.90;;;;;;4968938;28;20217;-58
2022/12/12 09:43:56;;;;;;;37.47;14.60;;;-1.10;99.90;;;;;;4968922;28;20204;-58
2022/12/12 09:46:33;;;;;;;34.03;13.70;;;-0.90;99.90;;;;;;4959678;28;20217;-58
2022/12/12 09:49:12;;;;;;;32.70;14.87;;;-0.60;99.90;;;;;;4963362;28;20227;-59
2022/12/12 09:51:44;;;;;;;30.43;12.83;;;-0.30;99.90;;;;;;4969249;28;20272;-58
2022/12/12 09:54:15;;;;;;;28.70;12.57;;;0.00;99.90;;;;;;4966686;28;20195;-58
2022/12/12 09:56:55;;;;;;;42.87;18.50;;;0.20;99.90;;;;;;4968530;28;20207;-58
2022/12/12 09:59:31;;;;;;;31.70;14.40;;;0.50;99.90;;;;;;4963945;28;20203;-57
2022/12/12 10:02:11;;;;;;;30.60;15.03;;;0.70;99.90;;;;;;4965288;28;20199;-58
2022/12/12 10:04:46;;;;;;;35.30;14.70;;;0.90;99.90;;;;;;4968837;28;20191;-58
2022/12/12 10:07:26;;;;;;;31.83;12.87;;;0.90;99.90;;;;;;4995340;28;20219;-58
2022/12/12 10:10:02;;;;;;;25.87;12.90;;;0.80;99.90;;;;;;4962706;28;20636;-59
2022/12/12 10:12:34;;;;;;;30.13;13.60;;;0.80;99.90;;;;;;4965457;28;20744;-58
2022/12/12 10:15:05;;;;;;;38.70;13.50;;;0.70;99.90;;;;;;4969243;28;20199;-58
2022/12/12 10:17:37;;;;;;;41.03;19.87;;;0.70;99.90;;;;;;4961760;28;20258;-58
2022/12/12 10:20:14;;;;;;;26.60;12.83;;;0.80;99.90;;;;;;4965513;28;20546;-58
2022/12/12 10:22:49;;;;;;;30.40;12.47;;;1.00;99.90;;;;;;4963790;28;20222;-57
2022/12/12 10:25:21;;;;;;;27.13;13.20;;;0.90;99.90;;;;;;4988256;28;20245;-58
2022/12/12 10:27:54;;;;;;;34.67;16.83;;;0.80;99.90;;;;;;4969185;28;20634;-58
2022/12/12 10:30:23;;;;;;;34.53;14.23;;;1.10;99.90;;;;;;4960367;28;20219;-58
2022/12/12 10:33:15;;;;;;;37.37;15.80;;;1.20;99.90;;;;;;4966276;28;20196;-58
2022/12/12 10:35:53;;;;;;;36.10;16.37;;;1.20;99.90;;;;;;4966706;28;20670;-58
2022/12/12 10:38:34;;;;;;;33.33;15.23;;;1.20;99.90;;;;;;4966395;28;20199;-59
2022/12/12 10:41:11;;;;;;;133.10;42.10;;;1.20;99.90;;;;;;4972498;28;20196;-58
2022/12/12 10:43:47;;;;;;;32.60;15.10;;;1.30;99.90;;;;;;4966254;28;20220;-58
2022/12/12 10:46:27;;;;;;;28.00;13.50;;;1.30;99.90;;;;;;4967707;28;20206;-58
2022/12/12 10:48:56;;;;;;;30.37;14.67;;;1.30;99.90;;;;;;4969656;28;20260;-58
2022/12/12 10:51:27;;;;;;;37.20;18.70;;;1.40;99.90;;;;;;4999961;28;20206;-58
2022/12/12 10:53:55;;;;;;;31.07;15.07;;;1.30;99.90;;;;;;5048920;28;20277;-58
2022/12/12 10:56:27;;;;;;;29.83;13.57;;;1.40;99.90;;;;;;4971192;28;20220;-58
2022/12/12 10:58:58;;;;;;;51.70;20.83;;;1.50;99.90;;;;;;4969374;28;20192;-58
2022/12/12 11:01:31;;;;;;;25.40;13.17;;;1.50;99.90;;;;;;4967723;28;20212;-58
2022/12/12 11:04:23;;;;;;;28.17;13.10;;;1.60;99.90;;;;;;4980757;28;20596;-58
2022/12/12 11:06:54;;;;;;;24.77;12.03;;;1.70;99.90;;;;;;4966016;28;20701;-58
2022/12/12 11:09:26;;;;;;;30.93;14.50;;;1.80;99.90;;;;;;4984820;28;20546;-58
2022/12/12 11:11:59;;;;;;;74.43;28.07;;;1.90;99.90;;;;;;4966763;28;20209;-59
2022/12/12 11:14:33;;;;;;;32.20;14.70;;;2.10;99.90;;;;;;4969304;28;20200;-58
2022/12/12 11:17:02;;;;;;;29.87;14.60;;;2.10;99.90;;;;;;4964145;28;20262;-58
2022/12/12 11:19:38;;;;;;;26.40;13.07;;;2.10;99.90;;;;;;4969257;28;20262;-58
2022/12/12 11:22:06;;;;;;;23.03;12.10;;;2.10;99.90;;;;;;4965630;28;20542;-59
2022/12/12 11:24:38;;;;;;;26.47;12.20;;;2.10;99.90;;;;;;4970301;28;20196;-58
2022/12/12 11:27:07;;;;;;;29.00;13.57;;;2.20;99.90;;;;;;4966702;28;20187;-59
2022/12/12 11:29:45;;;;;;;31.53;12.80;;;2.40;99.90;;;;;;4955579;28;20203;-58
2022/12/12 11:32:16;;;;;;;28.23;13.67;;;2.40;99.90;;;;;;4968735;28;20210;-58
2022/12/12 11:34:48;;;;;;;26.17;12.37;;;2.50;99.90;;;;;;4969685;28;20203;-59
2022/12/12 11:37:19;;;;;;;46.97;21.17;;;2.50;99.90;;;;;;4965463;28;20206;-59
2022/12/12 11:39:50;;;;;;;30.10;13.73;;;2.70;99.90;;;;;;4978406;28;20537;-58
2022/12/12 11:42:24;;;;;;;149.83;50.93;;;2.70;99.90;;;;;;4985317;28;20231;-58
2022/12/12 11:45:03;;;;;;;174.50;58.20;;;2.70;99.90;;;;;;4964491;28;20650;-59
2022/12/12 11:47:39;;;;;;;123.40;45.53;;;2.70;99.90;;;;;;4968691;28;20212;-58
2022/12/12 11:50:20;;;;;;;36.53;16.03;;;2.70;99.90;;;;;;4968441;28;20203;-60
2022/12/12 11:52:50;;;;;;;31.17;12.60;;;2.80;99.90;;;;;;4968355;28;20210;-58
2022/12/12 11:55:24;;;;;;;26.80;12.60;;;2.70;99.90;;;;;;4978415;28;20204;-59
2022/12/12 11:58:14;;;;;;;32.97;16.43;;;2.50;99.90;;;;;;4966157;28;20746;-59
2022/12/12 12:00:53;;;;;;;67.03;31.70;;;2.50;99.90;;;;;;4972505;28;20225;-58
2022/12/12 12:03:29;;;;;;;23.67;11.77;;;2.40;99.90;;;;;;4977790;28;20195;-59
2022/12/12 12:06:22;;;;;;;24.33;11.50;;;2.40;99.90;;;;;;4976928;28;20195;-58
2022/12/12 12:09:15;;;;;;;23.33;11.63;;;2.50;99.90;;;;;;5052450;28;20210;-59
2022/12/12 12:11:54;;;;;;;34.20;17.90;;;2.40;99.90;;;;;;4967776;28;20207;-58
2022/12/12 12:15:11;;;;;;;25.30;12.33;;;2.40;99.90;;;;;;4966911;28;20196;-59
2022/12/12 12:18:02;;;;;;;24.23;10.67;;;2.50;99.90;;;;;;4966920;28;20231;-59
2022/12/12 12:20:43;;;;;;;22.67;11.20;;;2.50;99.90;;;;;;4966714;28;20207;-59
2022/12/12 12:23:23;;;;;;;26.60;11.70;;;2.50;99.90;;;;;;4964541;28;20199;-59
2022/12/12 12:25:58;;;;;;;26.47;14.13;;;2.50;99.90;;;;;;4965893;28;20527;-59
2022/12/12 12:28:53;;;;;;;24.07;11.27;;;2.50;99.90;;;;;;4966915;28;20187;-59
2022/12/12 12:31:32;;;;;;;21.87;10.90;;;2.60;99.90;;;;;;4966812;28;20211;-58
2022/12/12 12:34:14;;;;;;;24.33;12.10;;;2.70;99.90;;;;;;4966116;28;20200;-58
2022/12/12 12:36:54;;;;;;;24.73;12.13;;;2.70;99.90;;;;;;4967145;28;20715;-58
2022/12/12 12:39:40;;;;;;;25.10;12.10;;;2.60;99.90;;;;;;4965733;28;20670;-59
2022/12/12 12:42:20;;;;;;;26.33;13.80;;;2.50;99.90;;;;;;4960754;28;20213;-58
2022/12/12 12:44:54;;;;;;;20.93;11.20;;;2.70;99.90;;;;;;4968397;28;20201;-59
2022/12/12 12:47:33;;;;;;;26.63;11.43;;;2.70;99.90;;;;;;4979617;28;20220;-59
2022/12/12 12:50:14;;;;;;;23.93;11.70;;;2.70;99.90;;;;;;4961150;28;20222;-59
2022/12/12 12:52:50;;;;;;;22.67;11.03;;;2.50;99.90;;;;;;4965134;28;20211;-58
2022/12/12 12:55:21;;;;;;;21.83;11.07;;;2.50;99.90;;;;;;4968258;28;20214;-59
2022/12/12 12:57:51;;;;;;;23.53;11.83;;;2.40;99.90;;;;;;4967742;28;20299;-58
2022/12/12 13:00:22;;;;;;;23.10;12.10;;;2.50;99.90;;;;;;4966592;28;20211;-59
2022/12/12 13:02:57;;;;;;;21.60;11.37;;;2.50;99.90;;;;;;4967916;28;20195;-59
2022/12/12 13:05:34;;;;;;;25.03;13.07;;;2.50;99.90;;;;;;4983227;28;20191;-59
2022/12/12 13:08:13;;;;;;;18.87;10.70;;;2.50;99.90;;;;;;4981895;28;20226;-59